createdAt,value
2019-03-15T00:01:56.448Z,15.00
2019-03-15T00:04:25.865Z,17.03
2019-03-15T00:06:55.229Z,15.33
2019-03-15T00:09:24.691Z,11.27
2019-03-15T00:11:54.100Z,13.17
2019-03-15T00:14:23.977Z,16.97
2019-03-15T00:16:53.365Z,16.87
2019-03-15T00:19:22.893Z,15.53
2019-03-15T00:21:52.457Z,14.33
2019-03-15T00:24:21.787Z,14.80
2019-03-15T00:26:51.096Z,9.77
2019-03-15T00:29:20.451Z,13.30
2019-03-15T00:31:50.219Z,15.83
2019-03-15T00:34:19.666Z,18.07
2019-03-15T00:36:49.059Z,11.47
2019-03-15T00:39:18.489Z,11.77
2019-03-15T00:41:47.932Z,20.03
2019-03-15T00:44:17.395Z,19.57
2019-03-15T00:46:46.879Z,20.83
2019-03-15T00:49:16.285Z,18.93
2019-03-15T00:51:45.811Z,15.87
2019-03-15T00:54:15.225Z,18.00
2019-03-15T00:56:44.723Z,24.07
2019-03-15T00:59:14.155Z,20.47
2019-03-15T01:01:43.473Z,15.10
2019-03-15T01:04:13.312Z,22.37
2019-03-15T01:06:42.707Z,16.40
2019-03-15T01:09:12.442Z,17.97
2019-03-15T01:11:41.813Z,12.43
2019-03-15T01:14:11.255Z,19.27
2019-03-15T01:16:40.875Z,21.17
2019-03-15T01:19:10.630Z,21.77
2019-03-15T01:21:40.201Z,21.07
2019-03-15T01:24:09.615Z,16.27
2019-03-15T01:26:39.013Z,24.87
2019-03-15T01:29:08.467Z,17.70
2019-03-15T01:31:37.861Z,16.67
2019-03-15T01:34:07.233Z,18.13
2019-03-15T01:36:36.622Z,19.80
2019-03-15T01:39:07.145Z,13.83
2019-03-15T01:41:36.535Z,20.23
2019-03-15T01:44:05.950Z,14.93
2019-03-15T01:46:35.347Z,22.80
2019-03-15T01:49:04.847Z,16.80
2019-03-15T01:51:34.235Z,18.87
2019-03-15T01:54:03.720Z,19.50
2019-03-15T01:56:33.060Z,12.87
2019-03-15T01:59:02.482Z,16.17
2019-03-15T02:01:31.935Z,18.13
2019-03-15T02:04:01.682Z,18.53
2019-03-15T02:06:31.495Z,18.83
2019-03-15T02:09:00.897Z,19.40
2019-03-15T02:11:30.544Z,17.20
2019-03-15T02:13:59.980Z,15.80
2019-03-15T02:16:29.399Z,16.03
2019-03-15T02:18:58.955Z,20.73
2019-03-15T02:21:28.503Z,19.23
2019-03-15T02:23:58.065Z,18.50
2019-03-15T02:26:27.519Z,12.97
2019-03-15T02:28:57.219Z,20.37
2019-03-15T02:31:26.968Z,16.87
2019-03-15T02:33:57.622Z,15.73
2019-03-15T02:36:27.265Z,14.93
2019-03-15T02:38:56.670Z,18.40
2019-03-15T02:41:26.070Z,19.47
2019-03-15T02:43:55.543Z,17.33
2019-03-15T02:46:25.837Z,14.50
2019-03-15T02:48:55.520Z,20.40
2019-03-15T02:51:25.592Z,16.87
2019-03-15T02:53:54.979Z,15.33
2019-03-15T02:56:25.178Z,23.83
2019-03-15T02:58:54.647Z,24.13
2019-03-15T03:01:24.043Z,17.93
2019-03-15T03:03:53.487Z,17.67
2019-03-15T03:06:22.895Z,21.37
2019-03-15T03:08:52.322Z,19.87
2019-03-15T03:11:21.881Z,18.47
2019-03-15T03:13:51.215Z,17.87
2019-03-15T03:16:20.661Z,16.00
2019-03-15T03:18:50.117Z,20.37
2019-03-15T03:21:19.858Z,21.00
2019-03-15T03:23:49.325Z,18.57
2019-03-15T03:26:18.763Z,16.73
2019-03-15T03:28:48.277Z,15.97
2019-03-15T03:31:17.705Z,21.73
2019-03-15T03:33:47.504Z,17.53
2019-03-15T03:36:16.941Z,11.30
2019-03-15T03:38:46.364Z,21.37
2019-03-15T03:41:15.793Z,20.97
2019-03-15T03:43:45.712Z,15.70
2019-03-15T03:46:15.156Z,22.13
2019-03-15T03:48:44.583Z,18.90
2019-03-15T03:51:14.019Z,18.77
2019-03-15T03:53:43.447Z,21.60
2019-03-15T03:56:13.088Z,19.13
2019-03-15T03:58:42.507Z,16.50
2019-03-15T04:01:11.880Z,16.30
2019-03-15T04:03:41.410Z,18.40
2019-03-15T04:06:11.343Z,17.70
2019-03-15T04:08:41.115Z,20.67
2019-03-15T04:11:10.590Z,20.97
2019-03-15T04:13:40.021Z,16.80
2019-03-15T04:16:09.563Z,16.93
2019-03-15T04:18:38.973Z,15.77
2019-03-15T04:21:08.314Z,21.97
2019-03-15T04:23:38.406Z,16.67
2019-03-15T04:26:08.015Z,12.57
2019-03-15T04:28:38.475Z,20.33
2019-03-15T04:31:07.917Z,14.57
2019-03-15T04:33:37.287Z,23.17
2019-03-15T04:36:06.620Z,19.87
2019-03-15T04:38:36.003Z,13.27
2019-03-15T04:41:05.585Z,15.57
2019-03-15T04:43:34.995Z,15.20
2019-03-15T04:46:04.414Z,27.00
2019-03-15T04:48:33.864Z,18.83
2019-03-15T04:51:03.313Z,14.37
2019-03-15T04:53:32.901Z,17.63
2019-03-15T04:56:02.295Z,14.77
2019-03-15T04:58:31.815Z,17.23
2019-03-15T05:01:01.261Z,20.50
2019-03-15T05:03:30.725Z,21.53
2019-03-15T05:06:03.571Z,20.67
2019-03-15T05:08:31.192Z,21.70
2019-03-15T05:11:00.594Z,21.53
2019-03-15T05:13:30.030Z,21.10
2019-03-15T05:15:59.699Z,16.30
2019-03-15T05:18:29.154Z,11.93
2019-03-15T05:20:58.627Z,18.33
2019-03-15T05:23:28.361Z,17.57
2019-03-15T05:25:57.842Z,22.70
2019-03-15T05:28:27.800Z,22.33
2019-03-15T05:30:58.189Z,15.77
2019-03-15T05:33:27.489Z,19.93
2019-03-15T05:35:56.945Z,18.20
2019-03-15T05:38:26.699Z,14.47
2019-03-15T05:40:56.033Z,18.13
2019-03-15T05:43:25.462Z,18.83
2019-03-15T05:45:54.951Z,15.90
2019-03-15T05:48:30.334Z,16.27
2019-03-15T05:51:01.459Z,16.80
2019-03-15T05:53:30.903Z,15.20
2019-03-15T05:56:00.317Z,19.50
2019-03-15T05:58:29.719Z,18.57
2019-03-15T06:00:59.153Z,17.27
2019-03-15T06:03:28.700Z,13.33
2019-03-15T06:05:58.078Z,14.67
2019-03-15T06:08:27.777Z,15.97
2019-03-15T06:11:16.253Z,12.90
2019-03-15T06:13:45.600Z,21.33
2019-03-15T06:16:15.041Z,13.03
2019-03-15T06:18:44.427Z,16.80
2019-03-15T06:21:13.923Z,16.57
2019-03-15T06:23:43.333Z,11.33
2019-03-15T06:26:12.756Z,13.67
2019-03-15T06:28:42.193Z,14.03
2019-03-15T06:31:11.687Z,18.00
2019-03-15T06:33:41.131Z,14.87
2019-03-15T06:36:10.475Z,9.27
2019-03-15T06:38:39.895Z,10.30
2019-03-15T06:41:09.464Z,19.87
2019-03-15T06:43:39.045Z,12.30
2019-03-15T06:46:08.884Z,19.13
2019-03-15T06:48:38.285Z,14.57
2019-03-15T06:51:09.231Z,11.80
2019-03-15T06:53:38.768Z,12.40
2019-03-15T06:56:08.123Z,13.97
2019-03-15T06:58:37.548Z,16.90
2019-03-15T07:01:06.948Z,10.53
2019-03-15T07:03:36.342Z,10.63
2019-03-15T07:06:05.776Z,15.30
2019-03-15T07:08:35.538Z,13.93
2019-03-15T07:11:05.388Z,10.93
2019-03-15T07:13:34.825Z,13.53
2019-03-15T07:16:04.270Z,14.40
2019-03-15T07:18:33.690Z,13.70
2019-03-15T07:21:03.218Z,10.40
2019-03-15T07:23:32.640Z,15.13
2019-03-15T07:26:02.855Z,10.97
2019-03-15T07:28:32.297Z,12.47
2019-03-15T07:31:01.715Z,14.70
2019-03-15T07:33:31.184Z,13.20
2019-03-15T07:36:01.552Z,19.93
2019-03-15T07:38:30.958Z,15.87
2019-03-15T07:41:00.340Z,18.00
2019-03-15T07:43:29.729Z,12.50
2019-03-15T07:45:59.156Z,12.13
2019-03-15T07:48:28.536Z,13.17
2019-03-15T07:50:58.312Z,8.67
2019-03-15T07:53:27.764Z,15.23
2019-03-15T07:55:57.189Z,12.30
2019-03-15T07:58:26.724Z,16.90
2019-03-15T08:00:56.136Z,12.83
2019-03-15T08:03:25.771Z,16.27
2019-03-15T08:05:55.255Z,14.87
2019-03-15T08:08:24.674Z,10.27
2019-03-15T08:10:55.169Z,12.27
2019-03-15T08:13:24.774Z,14.00
2019-03-15T08:15:54.174Z,15.83
2019-03-15T08:18:23.648Z,19.27
2019-03-15T08:20:53.390Z,14.17
2019-03-15T08:23:22.866Z,17.47
2019-03-15T08:25:52.317Z,13.43
2019-03-15T08:28:21.752Z,11.87
2019-03-15T08:30:51.198Z,14.73
2019-03-15T08:33:20.720Z,14.23
2019-03-15T08:35:50.115Z,21.23
2019-03-15T08:38:19.518Z,13.80
2019-03-15T08:40:48.919Z,14.47
2019-03-15T08:43:18.730Z,18.83
2019-03-15T08:45:48.124Z,13.17
2019-03-15T08:48:17.538Z,15.03
2019-03-15T08:50:46.878Z,15.73
2019-03-15T08:53:16.314Z,15.93
2019-03-15T08:55:45.796Z,13.80
2019-03-15T08:58:21.688Z,16.07
2019-03-15T09:00:46.340Z,14.70
2019-03-15T09:03:27.403Z,15.23
2019-03-15T09:05:47.145Z,14.03
2019-03-15T09:08:16.555Z,17.13
2019-03-15T09:10:45.958Z,11.57
2019-03-15T09:13:15.447Z,15.03
2019-03-15T09:15:44.863Z,14.70
2019-03-15T09:18:14.390Z,14.30
2019-03-15T09:20:43.721Z,13.83
2019-03-15T09:23:13.143Z,17.97
2019-03-15T09:25:42.772Z,12.77
2019-03-15T09:28:12.100Z,16.27
2019-03-15T09:30:41.535Z,18.60
2019-03-15T09:33:10.954Z,13.27
2019-03-15T09:35:40.289Z,14.90
2019-03-15T09:38:10.660Z,13.80
2019-03-15T09:40:40.534Z,20.27
2019-03-15T09:43:10.796Z,16.10
2019-03-15T09:45:40.217Z,20.67
2019-03-15T09:48:09.646Z,14.43
2019-03-15T09:50:50.677Z,21.40
2019-03-15T09:53:11.005Z,20.83
2019-03-15T09:55:40.424Z,18.13
2019-03-15T09:58:09.755Z,19.93
2019-03-15T10:00:39.128Z,21.57
2019-03-15T10:03:21.225Z,19.37
2019-03-15T10:05:39.593Z,16.37
2019-03-15T10:08:09.011Z,14.97
2019-03-15T10:10:38.424Z,15.77
2019-03-15T10:13:07.888Z,20.50
2019-03-15T10:15:37.358Z,15.77
2019-03-15T10:18:06.967Z,14.07
2019-03-15T10:20:36.301Z,14.87
2019-03-15T10:23:06.541Z,15.37
2019-03-15T10:25:46.328Z,13.37
2019-03-15T10:28:07.350Z,10.97
2019-03-15T10:30:36.801Z,9.10
2019-03-15T10:33:06.188Z,10.67
2019-03-15T10:35:35.711Z,13.03
2019-03-15T10:38:05.167Z,15.17
2019-03-15T10:40:34.568Z,12.03
2019-03-15T10:43:04.021Z,9.77
2019-03-15T10:45:33.475Z,10.43
2019-03-15T10:48:02.840Z,10.30
2019-03-15T10:50:32.263Z,7.70
2019-03-15T10:53:01.690Z,8.80
2019-03-15T10:55:31.104Z,8.30
2019-03-15T10:58:00.537Z,8.80
2019-03-15T11:00:30.178Z,9.17
2019-03-15T11:02:59.584Z,11.63
2019-03-15T11:05:29.056Z,9.77
2019-03-15T11:07:58.553Z,9.47
2019-03-15T11:10:27.986Z,9.27
2019-03-15T11:12:57.645Z,9.83
2019-03-15T11:15:27.086Z,8.63
2019-03-15T11:17:56.930Z,8.60
2019-03-15T11:20:26.419Z,9.60
2019-03-15T11:22:55.939Z,9.80
2019-03-15T11:25:25.322Z,9.23
2019-03-15T11:27:54.798Z,8.83
2019-03-15T11:30:24.187Z,8.60
2019-03-15T11:32:53.685Z,8.10
2019-03-15T11:35:23.092Z,8.43
2019-03-15T11:37:52.604Z,8.00
2019-03-15T11:40:22.022Z,7.03
2019-03-15T11:42:51.456Z,8.90
2019-03-15T11:45:20.915Z,8.17
2019-03-15T11:48:03.160Z,10.40
2019-03-15T11:50:21.568Z,8.87
2019-03-15T11:52:50.983Z,7.17
2019-03-15T11:55:20.350Z,7.93
2019-03-15T11:57:50.136Z,8.67
2019-03-15T12:00:19.620Z,9.40
2019-03-15T12:02:49.400Z,10.90
2019-03-15T12:05:18.824Z,8.70
2019-03-15T12:07:48.217Z,10.33
2019-03-15T12:10:17.668Z,8.17
2019-03-15T12:12:47.066Z,6.93
2019-03-15T12:15:16.978Z,8.23
2019-03-15T12:17:46.416Z,7.73
2019-03-15T12:20:16.315Z,7.13
2019-03-15T12:22:45.712Z,5.13
2019-03-15T12:25:15.256Z,5.73
2019-03-15T12:27:44.674Z,3.97
2019-03-15T12:30:14.102Z,4.60
2019-03-15T12:32:43.862Z,4.17
2019-03-15T12:35:13.376Z,6.37
2019-03-15T12:37:42.908Z,6.57
2019-03-15T12:40:12.398Z,4.63
2019-03-15T12:42:41.827Z,5.70
2019-03-15T12:45:11.872Z,6.50
2019-03-15T12:47:41.621Z,3.63
2019-03-15T12:50:11.513Z,3.67
2019-03-15T12:52:47.770Z,4.73
2019-03-15T12:55:12.154Z,5.47
2019-03-15T12:57:41.586Z,3.00
2019-03-15T13:00:12.851Z,4.23
2019-03-15T13:02:42.299Z,4.80
2019-03-15T13:05:11.734Z,4.90
2019-03-15T13:07:41.232Z,4.90
2019-03-15T13:10:11.894Z,3.47
2019-03-15T13:12:41.253Z,1.40
2019-03-15T13:15:12.477Z,1.67
2019-03-15T13:17:41.932Z,2.93
2019-03-15T13:20:12.147Z,3.03
2019-03-15T13:22:41.503Z,3.83
2019-03-15T13:25:11.299Z,4.70
2019-03-15T13:27:40.702Z,4.53
2019-03-15T13:30:10.691Z,7.13
2019-03-15T13:32:40.081Z,9.80
2019-03-15T13:35:09.534Z,3.27
2019-03-15T13:37:42.290Z,4.97
2019-03-15T13:40:10.280Z,4.20
2019-03-15T13:42:39.649Z,7.17
2019-03-15T13:45:10.275Z,8.37
2019-03-15T13:47:39.661Z,5.50
2019-03-15T13:50:10.232Z,4.87
2019-03-15T13:52:39.636Z,5.23
2019-03-15T13:55:10.034Z,4.93
2019-03-15T13:57:39.420Z,5.00
2019-03-15T14:00:10.430Z,5.07
2019-03-15T14:02:39.871Z,3.83
2019-03-15T14:05:09.466Z,6.47
2019-03-15T14:07:38.894Z,3.50
2019-03-15T14:10:09.536Z,5.03
2019-03-15T14:12:39.026Z,5.20
2019-03-15T14:15:09.856Z,4.23
2019-03-15T14:17:39.304Z,4.83
2019-03-15T14:20:09.756Z,2.53
2019-03-15T14:22:39.533Z,5.97
2019-03-15T14:25:10.415Z,11.83
2019-03-15T14:27:39.795Z,4.90
2019-03-15T14:30:10.761Z,6.27
2019-03-15T14:32:40.116Z,6.60
2019-03-15T14:35:10.096Z,7.00
2019-03-15T14:37:39.855Z,4.50
2019-03-15T14:40:09.435Z,6.07
2019-03-15T14:42:38.945Z,5.30
2019-03-15T14:45:10.023Z,6.13
2019-03-15T14:47:39.597Z,3.65
2019-03-15T14:50:09.289Z,7.03
2019-03-15T14:52:38.746Z,2.97
2019-03-15T14:55:08.217Z,6.93
2019-03-15T14:57:50.614Z,3.97
2019-03-15T15:00:11.274Z,5.57
2019-03-15T15:02:40.901Z,3.43
2019-03-15T15:05:11.734Z,5.97
2019-03-15T15:07:41.948Z,5.17
2019-03-15T15:10:11.579Z,3.63
2019-03-15T15:12:41.329Z,4.33
2019-03-15T15:15:12.100Z,3.90
2019-03-15T15:17:41.745Z,1.93
2019-03-15T15:20:11.751Z,3.60
2019-03-15T15:22:41.279Z,5.23
2019-03-15T15:25:10.698Z,4.53
2019-03-15T15:27:40.527Z,6.33
2019-03-15T15:30:10.800Z,4.83
2019-03-15T15:32:40.119Z,3.50
2019-03-15T15:37:44.339Z,4.40
2019-03-15T15:40:13.853Z,4.93
2019-03-15T15:42:43.311Z,4.57
2019-03-15T15:45:12.823Z,3.53
2019-03-15T15:47:42.258Z,6.90
2019-03-15T15:50:12.203Z,5.00
2019-03-15T15:52:41.571Z,2.47
2019-03-15T15:55:11.117Z,7.13
2019-03-15T15:57:40.529Z,5.10
2019-03-15T16:00:11.071Z,5.13
2019-03-15T16:02:40.427Z,5.63
2019-03-15T16:05:10.254Z,5.37
2019-03-15T16:07:39.645Z,6.30
2019-03-15T16:10:10.295Z,6.07
2019-03-15T16:12:39.873Z,4.97
2019-03-15T16:15:10.369Z,6.47
2019-03-15T16:17:39.935Z,6.57
2019-03-15T16:20:09.601Z,5.67
2019-03-15T16:22:38.989Z,6.03
2019-03-15T16:25:08.387Z,5.53
2019-03-15T16:27:37.769Z,5.90
2019-03-15T16:30:08.809Z,6.23
2019-03-15T16:32:38.313Z,5.27
2019-03-15T16:35:09.399Z,4.10
2019-03-15T16:37:38.815Z,6.43
2019-03-15T16:40:08.627Z,6.67
2019-03-15T16:42:38.089Z,4.07
2019-03-15T16:45:10.089Z,4.67
2019-03-15T16:47:39.815Z,10.53
2019-03-15T16:50:10.419Z,5.33
2019-03-15T16:52:40.171Z,7.27
2019-03-15T16:55:10.316Z,5.07
2019-03-15T16:57:39.747Z,8.03
2019-03-15T17:00:10.313Z,7.10
2019-03-15T17:02:40.307Z,5.60
2019-03-15T17:05:09.983Z,6.47
2019-03-15T17:07:39.307Z,5.73
2019-03-15T17:10:09.584Z,5.47
2019-03-15T17:12:39.155Z,7.63
2019-03-15T17:15:10.128Z,6.37
2019-03-15T17:17:39.549Z,5.43
2019-03-15T17:20:10.107Z,6.93
2019-03-15T17:22:39.536Z,6.60
2019-03-15T17:25:09.584Z,7.07
2019-03-15T17:27:39.006Z,6.63
2019-03-15T17:30:10.581Z,9.57
2019-03-15T17:32:40.472Z,6.57
2019-03-15T17:35:10.683Z,6.03
2019-03-15T17:37:40.098Z,7.13
2019-03-15T17:40:11.013Z,7.80
2019-03-15T17:42:40.485Z,9.03
2019-03-15T17:45:10.421Z,5.53
2019-03-15T17:47:39.839Z,7.33
2019-03-15T17:50:13.963Z,6.80
2019-03-15T17:52:43.420Z,9.00
2019-03-15T17:55:13.602Z,8.63
2019-03-15T17:57:45.591Z,9.13
2019-03-15T18:00:28.000Z,9.50
2019-03-15T18:02:57.383Z,10.30
2019-03-15T18:05:26.775Z,7.83
2019-03-15T18:07:56.183Z,8.43
2019-03-15T18:10:25.594Z,10.57
2019-03-15T18:12:55.054Z,8.13
2019-03-15T18:15:24.581Z,6.27
2019-03-15T18:17:53.936Z,11.43
2019-03-15T18:20:23.407Z,7.33
2019-03-15T18:22:52.781Z,6.37
2019-03-15T18:25:22.738Z,6.67
2019-03-15T18:27:52.838Z,10.10
2019-03-15T18:30:22.243Z,10.23
2019-03-15T18:32:51.518Z,6.43
2019-03-15T18:35:32.969Z,10.80
2019-03-15T18:37:52.078Z,7.30
2019-03-15T18:40:21.743Z,8.97
2019-03-15T18:42:51.456Z,8.80
2019-03-15T18:45:20.884Z,13.60
2019-03-15T18:47:50.568Z,10.97
2019-03-15T18:50:21.494Z,15.43
2019-03-15T18:52:51.162Z,7.70
2019-03-15T18:55:21.038Z,11.03
2019-03-15T18:57:50.523Z,9.77
2019-03-15T19:00:20.253Z,11.70
2019-03-15T19:02:49.712Z,9.60
2019-03-15T19:05:19.543Z,10.87
2019-03-15T19:07:48.955Z,7.63
2019-03-15T19:10:18.313Z,9.53
2019-03-15T19:12:48.083Z,8.23
2019-03-15T19:15:17.400Z,9.77
2019-03-15T19:17:46.773Z,16.93
2019-03-15T19:20:16.724Z,12.00
2019-03-15T19:22:46.102Z,11.67
2019-03-15T19:25:15.532Z,9.57
2019-03-15T19:27:44.958Z,11.00
2019-03-15T19:30:14.894Z,9.50
2019-03-15T19:32:44.335Z,11.73
2019-03-15T19:35:13.745Z,10.67
2019-03-15T19:37:43.147Z,6.57
2019-03-15T19:40:13.439Z,11.80
2019-03-15T19:42:45.106Z,14.67
2019-03-15T19:45:14.413Z,12.93
2019-03-15T19:47:43.968Z,9.77
2019-03-15T19:50:14.193Z,12.77
2019-03-15T19:52:43.612Z,9.63
2019-03-15T19:55:13.287Z,14.73
2019-03-15T19:57:43.183Z,11.40
2019-03-15T20:00:14.358Z,15.40
2019-03-15T20:02:43.779Z,12.87
2019-03-15T20:05:13.415Z,14.17
2019-03-15T20:07:43.764Z,13.53
2019-03-15T20:10:16.381Z,13.70
2019-03-15T20:12:44.744Z,12.50
2019-03-15T20:15:14.711Z,12.83
2019-03-15T20:17:44.204Z,10.17
2019-03-15T20:20:13.572Z,12.00
2019-03-15T20:22:42.965Z,14.73
2019-03-15T20:25:12.824Z,10.20
2019-03-15T20:27:42.203Z,12.13
2019-03-15T20:30:20.993Z,14.83
2019-03-15T20:32:45.218Z,11.57
2019-03-15T20:35:14.725Z,10.10
2019-03-15T20:37:44.124Z,11.03
2019-03-15T20:40:13.589Z,13.40
2019-03-15T20:42:43.072Z,14.23
2019-03-15T20:45:13.963Z,10.30
2019-03-15T20:47:43.464Z,14.37
2019-03-15T20:50:13.310Z,10.10
2019-03-15T20:52:42.804Z,9.33
2019-03-15T20:55:12.373Z,13.00
2019-03-15T20:57:41.803Z,14.23
2019-03-15T21:00:13.354Z,12.97
2019-03-15T21:02:42.806Z,11.23
2019-03-15T21:05:12.378Z,11.77
2019-03-15T21:07:43.500Z,19.93
2019-03-15T21:10:12.915Z,14.30
2019-03-15T21:12:42.239Z,14.90
2019-03-15T21:15:12.230Z,18.57
2019-03-15T21:17:41.634Z,12.20
2019-03-15T21:20:11.842Z,10.50
2019-03-15T21:22:41.199Z,14.57
2019-03-15T21:25:11.204Z,12.73
2019-03-15T21:27:52.984Z,10.07
2019-03-15T21:30:13.977Z,10.10
2019-03-15T21:32:43.387Z,15.90
2019-03-15T21:35:12.804Z,14.70
2019-03-15T21:37:42.320Z,16.47
2019-03-15T21:40:12.242Z,8.83
2019-03-15T21:42:41.951Z,14.03
2019-03-15T21:45:11.677Z,13.20
2019-03-15T21:47:41.759Z,8.93
2019-03-15T21:50:12.418Z,16.30
2019-03-15T21:52:41.957Z,11.27
2019-03-15T21:55:12.364Z,14.70
2019-03-15T21:57:41.842Z,12.60
2019-03-15T22:00:12.817Z,12.23
2019-03-15T22:02:42.319Z,13.37
2019-03-15T22:05:11.629Z,15.50
2019-03-15T22:07:41.387Z,14.67
2019-03-15T22:10:11.352Z,15.60
2019-03-15T22:12:40.779Z,13.23
2019-03-15T22:15:10.414Z,14.13
2019-03-15T22:17:40.228Z,16.57
2019-03-15T22:20:10.259Z,16.93
2019-03-15T22:22:40.126Z,16.77
2019-03-15T22:25:09.762Z,19.73
2019-03-15T22:27:39.154Z,19.30
2019-03-15T22:30:08.994Z,17.93
2019-03-15T22:32:38.458Z,15.23
2019-03-15T22:35:07.901Z,13.93
2019-03-15T22:37:37.499Z,16.63
2019-03-15T22:40:06.997Z,13.30
2019-03-15T22:42:36.417Z,11.83
2019-03-15T22:45:06.410Z,14.47
2019-03-15T22:47:35.791Z,14.47
2019-03-15T22:50:05.701Z,16.43
2019-03-15T22:52:35.237Z,13.23
2019-03-15T22:55:05.052Z,14.53
2019-03-15T22:57:34.438Z,11.80
2019-03-15T23:00:04.335Z,12.97
2019-03-15T23:02:33.884Z,14.30
2019-03-15T23:05:03.257Z,12.53
2019-03-15T23:07:32.615Z,11.07
2019-03-15T23:10:02.047Z,13.53
2019-03-15T23:12:31.411Z,13.53
2019-03-15T23:15:00.765Z,12.03
2019-03-15T23:17:30.202Z,14.10
2019-03-15T23:19:59.780Z,10.93
2019-03-15T23:22:29.174Z,13.93
2019-03-15T23:24:59.145Z,10.47
2019-03-15T23:27:28.759Z,20.43
2019-03-15T23:29:58.226Z,11.03
2019-03-15T23:32:27.653Z,16.47
2019-03-15T23:34:57.048Z,12.50
2019-03-15T23:37:26.464Z,16.17
2019-03-15T23:39:56.171Z,14.37
2019-03-15T23:42:25.528Z,12.03
2019-03-15T23:44:55.344Z,12.50
2019-03-15T23:47:25.207Z,11.93
2019-03-15T23:49:54.605Z,12.97
2019-03-15T23:52:23.981Z,20.77
2019-03-15T23:54:53.423Z,12.70
2019-03-15T23:57:22.727Z,11.37
2019-03-15T23:59:52.246Z,13.33
